createdAt,value
2023-03-20T00:00:16.925Z,23
2023-03-20T00:05:16.935Z,22
2023-03-20T00:10:16.911Z,21
2023-03-20T00:15:16.908Z,25
2023-03-20T00:20:17.088Z,24
2023-03-20T00:25:16.918Z,26
2023-03-20T00:30:17.034Z,22
2023-03-20T00:35:17.028Z,25
2023-03-20T00:40:17.114Z,25
2023-03-20T00:45:16.995Z,22
2023-03-20T00:50:17.048Z,26
2023-03-20T00:55:17.050Z,28
2023-03-20T01:00:17.033Z,26
2023-03-20T01:05:17.082Z,35
2023-03-20T01:10:17.067Z,37
2023-03-20T01:15:17.358Z,35
2023-03-20T01:20:17.074Z,40
2023-03-20T01:25:17.098Z,40
2023-03-20T01:30:17.139Z,34
2023-03-20T01:35:17.117Z,36
2023-03-20T01:40:17.194Z,38
2023-03-20T01:45:17.383Z,31
2023-03-20T01:50:17.121Z,31
2023-03-20T01:55:17.139Z,30
2023-03-20T02:00:17.204Z,26
2023-03-20T02:05:17.342Z,28
2023-03-20T02:10:17.321Z,27
2023-03-20T02:15:17.169Z,27
2023-03-20T02:20:17.370Z,25
2023-03-20T02:25:17.211Z,24
2023-03-20T02:30:17.388Z,24
2023-03-20T02:35:17.321Z,23
2023-03-20T02:40:17.276Z,23
2023-03-20T02:45:17.338Z,21
2023-03-20T02:50:17.312Z,21
2023-03-20T02:55:17.307Z,21
2023-03-20T03:00:17.409Z,19
2023-03-20T03:05:17.310Z,20
2023-03-20T03:10:17.297Z,19
2023-03-20T03:15:17.414Z,19
2023-03-20T03:20:17.344Z,14
2023-03-20T03:25:17.744Z,13
2023-03-20T03:30:16.444Z,12
2023-03-20T03:35:16.484Z,14
2023-03-20T03:40:16.364Z,13
2023-03-20T03:45:16.391Z,13
2023-03-20T03:50:16.448Z,15
2023-03-20T03:55:16.395Z,14
2023-03-20T04:00:15.455Z,12
2023-03-20T04:05:15.394Z,10
2023-03-20T04:10:15.498Z,10
2023-03-20T04:15:15.450Z,8
2023-03-20T04:20:15.504Z,9
2023-03-20T04:25:15.670Z,10
2023-03-20T04:30:15.455Z,6
2023-03-20T04:35:15.449Z,8
2023-03-20T04:40:15.636Z,5
2023-03-20T04:45:15.602Z,6
2023-03-20T04:50:15.603Z,6
2023-03-20T04:55:15.544Z,5
2023-03-20T05:00:15.551Z,6
2023-03-20T05:05:15.558Z,5
2023-03-20T05:10:15.677Z,4
2023-03-20T05:15:15.629Z,3
2023-03-20T05:20:15.568Z,4
2023-03-20T05:25:15.674Z,6
2023-03-20T05:30:15.716Z,5
2023-03-20T05:35:15.657Z,5
2023-03-20T05:40:15.743Z,5
2023-03-20T05:45:15.734Z,6
2023-03-20T05:50:15.781Z,5
2023-03-20T05:55:15.677Z,4
2023-03-20T06:00:15.876Z,5
2023-03-20T06:05:15.799Z,5
2023-03-20T06:10:15.733Z,4
2023-03-20T06:15:15.780Z,5
2023-03-20T06:20:15.742Z,4
2023-03-20T06:25:15.831Z,5
2023-03-20T06:30:15.739Z,5
2023-03-20T06:35:15.793Z,5
2023-03-20T06:40:15.894Z,5
2023-03-20T06:45:16.036Z,5
2023-03-20T06:50:15.846Z,6
2023-03-20T06:55:15.843Z,8
2023-03-20T07:00:15.794Z,8
2023-03-20T07:05:16.077Z,9
2023-03-20T07:10:15.850Z,8
2023-03-20T07:15:16.091Z,7
2023-03-20T07:20:16.033Z,8
2023-03-20T07:25:15.845Z,8
2023-03-20T07:30:15.886Z,7
2023-03-20T07:35:16.954Z,9
2023-03-20T07:40:16.982Z,9
2023-03-20T07:45:16.956Z,10
2023-03-20T07:50:16.971Z,9
2023-03-20T07:55:18.565Z,7
2023-03-20T08:00:17.233Z,10
2023-03-20T08:05:16.902Z,7
2023-03-20T08:10:16.901Z,6
2023-03-20T08:15:17.016Z,7
2023-03-20T08:20:17.067Z,8
2023-03-20T08:25:16.944Z,8
2023-03-20T08:30:17.053Z,8
2023-03-20T08:35:32.154Z,9
2023-03-20T08:40:17.062Z,8
2023-03-20T08:45:17.048Z,9
2023-03-20T08:50:17.068Z,10
2023-03-20T08:55:17.217Z,8
2023-03-20T09:00:17.077Z,9
2023-03-20T09:05:17.095Z,10
2023-03-20T09:10:17.289Z,9
2023-03-20T09:15:17.115Z,9
2023-03-20T09:20:17.205Z,9
2023-03-20T09:25:17.422Z,9
2023-03-20T09:30:17.175Z,9
2023-03-20T09:35:17.231Z,9
2023-03-20T09:40:17.225Z,9
2023-03-20T09:45:17.194Z,10
2023-03-20T09:50:17.158Z,8
2023-03-20T09:55:17.297Z,7
2023-03-20T10:00:17.337Z,11
2023-03-20T10:05:17.244Z,9
2023-03-20T10:10:17.306Z,10
2023-03-20T10:15:17.300Z,9
2023-03-20T10:20:17.323Z,10
2023-03-20T10:25:17.246Z,10
2023-03-20T10:30:17.420Z,13
2023-03-20T10:35:17.414Z,11
2023-03-20T10:40:17.437Z,9
2023-03-20T10:45:17.360Z,9
2023-03-20T10:50:17.419Z,10
2023-03-20T10:55:17.385Z,12
2023-03-20T11:00:17.627Z,10
2023-03-20T11:05:17.425Z,8
2023-03-20T11:10:17.594Z,9
2023-03-20T11:15:15.413Z,10
2023-03-20T11:20:15.421Z,9
2023-03-20T11:25:15.458Z,10
2023-03-20T11:30:15.402Z,11
2023-03-20T11:35:15.493Z,11
2023-03-20T11:40:15.445Z,13
2023-03-20T11:45:15.627Z,11
2023-03-20T11:50:15.653Z,11
2023-03-20T11:55:15.419Z,10
2023-03-20T12:00:15.785Z,8
2023-03-20T12:05:16.850Z,12
2023-03-20T12:10:15.606Z,14
2023-03-20T12:15:15.589Z,9
2023-03-20T12:20:15.506Z,12
2023-03-20T12:25:15.561Z,11
2023-03-20T12:30:15.742Z,14
2023-03-20T12:35:16.782Z,12
2023-03-20T12:40:15.702Z,10
2023-03-20T12:45:15.726Z,13
2023-03-20T12:50:15.688Z,14
2023-03-20T12:55:15.626Z,14
2023-03-20T13:00:15.580Z,13
2023-03-20T13:05:15.622Z,14
2023-03-20T13:10:15.784Z,13
2023-03-20T13:15:15.625Z,14
2023-03-20T13:20:15.662Z,10
2023-03-20T13:25:15.821Z,12
2023-03-20T13:30:15.717Z,13
2023-03-20T13:35:15.686Z,15
2023-03-20T13:40:15.758Z,15
2023-03-20T13:45:15.684Z,18
2023-03-20T13:50:15.711Z,18
2023-03-20T13:55:15.762Z,15
2023-03-20T14:00:15.819Z,15
2023-03-20T14:05:15.803Z,13
2023-03-20T14:10:15.792Z,13
2023-03-20T14:15:15.840Z,15
2023-03-20T14:20:15.953Z,14
2023-03-20T14:25:15.885Z,13
2023-03-20T14:30:15.872Z,13
2023-03-20T14:35:15.988Z,12
2023-03-20T14:40:15.830Z,13
2023-03-20T14:45:15.881Z,14
2023-03-20T14:50:15.975Z,18
2023-03-20T14:55:15.999Z,15
2023-03-20T15:00:15.900Z,15
2023-03-20T15:05:16.026Z,19
2023-03-20T15:10:19.006Z,11
2023-03-20T15:15:15.905Z,14
2023-03-20T15:20:15.970Z,17
2023-03-20T15:25:15.887Z,21
2023-03-20T15:30:16.104Z,18
2023-03-20T15:35:16.111Z,16
2023-03-20T15:40:16.153Z,23
2023-03-20T15:45:16.072Z,16
2023-03-20T15:50:16.201Z,19
2023-03-20T15:55:16.022Z,16
2023-03-20T16:00:16.091Z,21
2023-03-20T16:05:16.128Z,22
2023-03-20T16:10:16.077Z,18
2023-03-20T16:15:16.088Z,24
2023-03-20T16:20:16.126Z,21
2023-03-20T16:25:16.095Z,22
2023-03-20T16:30:16.116Z,21
2023-03-20T16:35:16.140Z,23
2023-03-20T16:40:16.267Z,25
2023-03-20T16:45:16.186Z,22
2023-03-20T16:50:16.195Z,21
2023-03-20T16:55:16.180Z,19
2023-03-20T17:00:16.266Z,19
2023-03-20T17:05:16.307Z,26
2023-03-20T17:10:16.128Z,15
2023-03-20T17:15:16.252Z,17
2023-03-20T17:20:16.249Z,15
2023-03-20T17:25:16.342Z,14
2023-03-20T17:30:16.197Z,18
2023-03-20T17:35:16.155Z,16
2023-03-20T17:40:16.294Z,16
2023-03-20T17:45:17.481Z,20
2023-03-20T17:50:16.339Z,19
2023-03-20T17:55:16.161Z,25
2023-03-20T18:00:16.665Z,26
2023-03-20T18:05:16.530Z,21
2023-03-20T18:10:16.301Z,21
2023-03-20T18:15:16.418Z,20
2023-03-20T18:20:16.355Z,18
2023-03-20T18:25:16.395Z,15
2023-03-20T18:30:16.393Z,17
2023-03-20T18:35:16.344Z,21
2023-03-20T18:40:16.505Z,19
2023-03-20T18:45:16.404Z,18
2023-03-20T18:50:16.428Z,24
2023-03-20T18:55:16.528Z,18
2023-03-20T19:00:16.410Z,13
2023-03-20T19:05:16.436Z,12
2023-03-20T19:10:16.460Z,17
2023-03-20T19:15:16.476Z,16
2023-03-20T19:20:16.441Z,17
2023-03-20T19:25:16.518Z,17
2023-03-20T19:30:16.474Z,18
2023-03-20T19:35:54.561Z,16
2023-03-20T19:40:16.708Z,19
2023-03-20T19:45:16.571Z,12
2023-03-20T19:50:16.540Z,24
2023-03-20T19:55:16.677Z,15
2023-03-20T20:01:00.283Z,17
2023-03-20T20:05:16.534Z,16
2023-03-20T20:10:16.544Z,15
2023-03-20T20:15:16.784Z,17
2023-03-20T20:20:16.675Z,17
2023-03-20T20:25:16.670Z,14
2023-03-20T20:30:16.606Z,13
2023-03-20T20:36:26.947Z,15
2023-03-20T20:40:16.774Z,13
2023-03-20T20:45:16.729Z,8
2023-03-20T20:50:16.665Z,14
2023-03-20T20:55:23.850Z,23
2023-03-20T21:00:16.692Z,14
2023-03-20T21:05:16.733Z,12
2023-03-20T21:10:16.741Z,15
2023-03-20T21:15:16.834Z,18
2023-03-20T21:20:16.729Z,18
2023-03-20T21:25:18.533Z,14
2023-03-20T21:30:16.775Z,16
2023-03-20T21:35:16.748Z,11
2023-03-20T21:40:16.778Z,9
2023-03-20T21:46:40.229Z,8
2023-03-20T21:47:48.574Z,8
2023-03-20T21:50:48.448Z,10
2023-03-20T21:57:08.009Z,10
2023-03-20T22:01:14.502Z,13
2023-03-20T22:01:57.514Z,13
2023-03-20T22:06:14.055Z,11
2023-03-20T22:07:23.935Z,11
2023-03-20T22:07:59.566Z,11
2023-03-20T22:12:08.567Z,10
2023-03-20T22:15:46.676Z,13
2023-03-20T22:21:13.380Z,15
2023-03-20T22:21:57.334Z,15
2023-03-20T22:25:53.037Z,13
2023-03-20T22:31:19.266Z,15
2023-03-20T22:36:18.621Z,14
2023-03-20T22:37:19.364Z,14
2023-03-20T22:38:12.721Z,14
2023-03-20T22:42:18.495Z,8
2023-03-20T22:45:17.202Z,14
2023-03-20T22:50:17.094Z,12
2023-03-20T22:55:17.212Z,9
2023-03-20T23:00:16.976Z,7
2023-03-20T23:05:17.041Z,7
2023-03-20T23:10:17.167Z,6
2023-03-20T23:15:17.046Z,5
2023-03-20T23:20:21.351Z,6
2023-03-20T23:25:27.496Z,5
2023-03-20T23:30:17.158Z,6
2023-03-20T23:35:17.147Z,7
2023-03-20T23:40:17.098Z,7
2023-03-20T23:45:20.387Z,7
2023-03-20T23:50:28.618Z,8
2023-03-20T23:55:17.006Z,4
